createdAt,value
2024-01-27T00:00:28.952Z,6.22
2024-01-27T00:03:01.315Z,6.27
2024-01-27T00:05:31.859Z,6.08
2024-01-27T00:07:59.387Z,5.97
2024-01-27T00:10:27.523Z,5.96
2024-01-27T00:13:00.300Z,6.21
2024-01-27T00:15:27.249Z,6.24
2024-01-27T00:17:57.474Z,6.28
2024-01-27T00:20:25.023Z,6.33
2024-01-27T00:22:51.957Z,6.19
2024-01-27T00:25:18.876Z,6.11
2024-01-27T00:27:45.951Z,6.24
2024-01-27T00:30:13.173Z,6.10
2024-01-27T00:32:41.277Z,6.22
2024-01-27T00:35:12.770Z,6.19
2024-01-27T00:37:39.832Z,5.96
2024-01-27T00:40:12.020Z,5.80
2024-01-27T00:42:39.117Z,5.81
2024-01-27T00:45:06.748Z,5.69
2024-01-27T00:47:33.726Z,5.78
2024-01-27T00:50:00.659Z,5.89
2024-01-27T00:52:27.678Z,5.68
2024-01-27T00:54:54.747Z,5.70
2024-01-27T00:57:21.734Z,5.72
2024-01-27T00:59:48.767Z,5.55
2024-01-27T01:02:15.670Z,5.50
2024-01-27T01:04:43.745Z,5.50
2024-01-27T01:07:10.760Z,5.64
2024-01-27T01:09:37.708Z,5.85
2024-01-27T01:12:07.942Z,5.87
2024-01-27T01:14:35.753Z,5.59
2024-01-27T01:17:03.019Z,5.45
2024-01-27T01:19:32.526Z,5.57
2024-01-27T01:21:59.445Z,5.51
2024-01-27T01:24:26.590Z,5.40
2024-01-27T01:26:53.526Z,5.34
2024-01-27T01:29:20.452Z,5.61
2024-01-27T01:31:47.348Z,5.45
2024-01-27T01:34:19.394Z,5.30
2024-01-27T01:36:46.826Z,5.31
2024-01-27T01:39:14.682Z,5.44
2024-01-27T01:41:41.880Z,5.56
2024-01-27T01:44:11.997Z,5.31
2024-01-27T01:46:38.907Z,5.37
2024-01-27T01:49:06.237Z,5.40
2024-01-27T01:51:33.704Z,5.34
2024-01-27T01:54:02.901Z,5.27
2024-01-27T01:56:30.571Z,5.29
2024-01-27T01:58:57.498Z,5.46
2024-01-27T02:01:24.819Z,5.56
2024-01-27T02:03:55.724Z,5.51
2024-01-27T02:06:22.814Z,5.48
2024-01-27T02:08:52.703Z,5.45
2024-01-27T02:11:30.008Z,5.48
2024-01-27T02:13:57.279Z,5.52
2024-01-27T02:16:24.175Z,5.66
2024-01-27T02:18:53.987Z,5.69
2024-01-27T02:21:21.072Z,6.06
2024-01-27T02:23:47.996Z,5.79
2024-01-27T02:26:21.209Z,5.76
2024-01-27T02:28:48.259Z,5.85
2024-01-27T02:31:20.472Z,5.86
2024-01-27T02:33:47.999Z,5.74
2024-01-27T02:36:15.039Z,5.77
2024-01-27T02:38:41.966Z,5.85
2024-01-27T02:41:08.905Z,5.91
2024-01-27T02:43:38.784Z,5.85
2024-01-27T02:46:08.719Z,5.80
2024-01-27T02:48:35.748Z,5.90
2024-01-27T02:51:05.930Z,5.92
2024-01-27T02:53:35.835Z,5.98
2024-01-27T02:56:03.053Z,6.00
2024-01-27T02:58:31.224Z,5.81
2024-01-27T03:00:58.115Z,5.69
2024-01-27T03:03:25.131Z,5.54
2024-01-27T03:05:55.912Z,5.61
2024-01-27T03:08:29.734Z,5.45
2024-01-27T03:10:57.506Z,5.31
2024-01-27T03:13:26.808Z,4.97
2024-01-27T03:15:59.266Z,5.12
2024-01-27T03:18:26.819Z,4.84
2024-01-27T03:20:53.925Z,4.77
2024-01-27T03:23:30.918Z,4.99
2024-01-27T03:26:06.186Z,4.78
2024-01-27T03:28:42.132Z,4.90
2024-01-27T03:31:11.418Z,4.72
2024-01-27T03:33:38.496Z,4.66
2024-01-27T03:36:10.408Z,4.72
2024-01-27T03:38:40.925Z,4.74
2024-01-27T03:41:13.421Z,4.68
2024-01-27T03:43:42.598Z,4.84
2024-01-27T03:46:17.548Z,4.66
2024-01-27T03:48:44.653Z,4.71
2024-01-27T03:51:22.837Z,4.52
2024-01-27T03:53:58.924Z,4.29
2024-01-27T03:56:37.731Z,4.40
2024-01-27T03:59:06.155Z,4.39
2024-01-27T04:01:32.986Z,4.49
2024-01-27T04:06:43.311Z,4.37
2024-01-27T04:09:10.551Z,4.52
2024-01-27T04:11:38.153Z,4.24
2024-01-27T04:14:06.210Z,4.17
2024-01-27T04:16:33.212Z,4.26
2024-01-27T04:19:00.203Z,4.03
2024-01-27T04:21:27.226Z,4.00
2024-01-27T04:23:54.224Z,4.22
2024-01-27T04:26:21.037Z,4.15
2024-01-27T04:28:47.914Z,4.30
2024-01-27T04:31:15.008Z,4.45
2024-01-27T04:33:41.883Z,4.05
2024-01-27T04:36:10.190Z,3.95
2024-01-27T04:38:37.252Z,3.81
2024-01-27T04:41:04.291Z,3.95
2024-01-27T04:43:31.112Z,3.62
2024-01-27T04:45:57.988Z,3.67
2024-01-27T04:48:24.903Z,3.71
2024-01-27T04:50:52.266Z,3.66
2024-01-27T04:53:19.294Z,3.77
2024-01-27T04:55:46.089Z,3.73
2024-01-27T04:58:12.877Z,3.78
2024-01-27T05:00:39.802Z,3.33
2024-01-27T05:03:09.033Z,3.36
2024-01-27T05:05:37.011Z,3.37
2024-01-27T05:08:04.401Z,3.30
2024-01-27T05:10:31.289Z,3.38
2024-01-27T05:12:58.179Z,3.56
2024-01-27T05:15:25.036Z,3.66
2024-01-27T05:17:52.214Z,3.59
2024-01-27T05:20:20.307Z,3.33
2024-01-27T05:22:47.314Z,3.42
2024-01-27T05:25:14.096Z,3.52
2024-01-27T05:27:40.948Z,3.29
2024-01-27T05:30:08.270Z,3.42
2024-01-27T05:32:35.253Z,3.40
2024-01-27T05:35:02.063Z,3.51
2024-01-27T05:37:28.870Z,3.53
2024-01-27T05:39:55.731Z,3.54
2024-01-27T05:42:22.958Z,3.48
2024-01-27T05:44:49.825Z,3.55
2024-01-27T05:47:16.683Z,3.43
2024-01-27T05:49:43.578Z,3.58
2024-01-27T05:52:10.652Z,3.35
2024-01-27T05:54:38.093Z,3.18
2024-01-27T05:57:05.158Z,3.05
2024-01-27T05:59:32.055Z,3.16
2024-01-27T06:01:59.300Z,3.20
2024-01-27T06:04:26.285Z,3.20
2024-01-27T06:06:53.218Z,3.36
2024-01-27T06:09:20.161Z,3.50
2024-01-27T06:11:47.032Z,3.62
2024-01-27T06:14:13.827Z,3.77
2024-01-27T06:16:40.655Z,3.88
2024-01-27T06:19:07.794Z,3.80
2024-01-27T06:21:34.785Z,3.86
2024-01-27T06:24:01.616Z,3.76
2024-01-27T06:26:28.440Z,4.09
2024-01-27T06:28:55.252Z,3.84
2024-01-27T06:31:22.322Z,3.68
2024-01-27T06:33:49.319Z,3.68
2024-01-27T06:36:16.371Z,3.62
2024-01-27T06:38:43.175Z,3.80
2024-01-27T06:41:11.114Z,3.91
2024-01-27T06:43:37.940Z,3.87
2024-01-27T06:46:04.922Z,3.75
2024-01-27T06:48:31.913Z,3.91
2024-01-27T06:50:58.876Z,3.96
2024-01-27T06:53:25.727Z,4.03
2024-01-27T06:55:52.560Z,4.08
2024-01-27T06:58:19.394Z,4.11
2024-01-27T07:00:46.426Z,4.06
2024-01-27T07:03:14.136Z,4.17
2024-01-27T07:05:42.347Z,4.17
2024-01-27T07:08:09.566Z,4.33
2024-01-27T07:10:36.936Z,4.41
2024-01-27T07:13:03.831Z,4.28
2024-01-27T07:15:30.751Z,4.46
2024-01-27T07:17:57.907Z,4.62
2024-01-27T07:20:25.818Z,4.74
2024-01-27T07:22:52.766Z,5.06
2024-01-27T07:25:19.998Z,5.21
2024-01-27T07:27:47.776Z,5.54
2024-01-27T07:30:16.581Z,5.71
2024-01-27T07:32:45.582Z,5.64
2024-01-27T07:35:12.489Z,5.55
2024-01-27T07:37:39.434Z,5.56
2024-01-27T07:40:06.907Z,5.57
2024-01-27T07:42:34.015Z,5.53
2024-01-27T07:45:01.022Z,5.60
2024-01-27T07:47:28.136Z,5.73
2024-01-27T07:49:55.391Z,5.88
2024-01-27T07:52:22.303Z,5.83
2024-01-27T07:54:50.452Z,5.88
2024-01-27T07:57:17.510Z,6.07
2024-01-27T07:59:44.325Z,6.29
2024-01-27T08:02:11.157Z,6.48
2024-01-27T08:04:39.270Z,6.73
2024-01-27T08:07:11.407Z,6.68
2024-01-27T08:09:39.609Z,6.74
2024-01-27T08:12:06.929Z,6.95
2024-01-27T08:14:35.042Z,7.04
2024-01-27T08:17:01.893Z,7.28
2024-01-27T08:19:29.020Z,7.33
2024-01-27T08:21:55.984Z,7.26
2024-01-27T08:24:25.601Z,7.38
2024-01-27T08:26:52.780Z,7.49
2024-01-27T08:29:19.803Z,7.36
2024-01-27T08:31:46.785Z,7.46
2024-01-27T08:34:16.478Z,7.62
2024-01-27T08:36:43.436Z,7.58
2024-01-27T08:39:10.503Z,7.73
2024-01-27T08:41:37.866Z,7.71
2024-01-27T08:44:04.923Z,7.79
2024-01-27T08:46:31.954Z,7.88
2024-01-27T08:48:59.152Z,7.88
2024-01-27T08:51:26.320Z,8.11
2024-01-27T08:53:53.214Z,8.02
2024-01-27T08:56:20.191Z,8.13
2024-01-27T08:58:49.161Z,8.15
2024-01-27T09:01:17.405Z,8.37
2024-01-27T09:03:44.545Z,8.30
2024-01-27T09:06:11.728Z,8.32
2024-01-27T09:08:38.611Z,8.43
2024-01-27T09:11:05.563Z,8.47
2024-01-27T09:13:33.120Z,8.62
2024-01-27T09:16:00.579Z,8.75
2024-01-27T09:18:28.602Z,8.93
2024-01-27T09:20:55.777Z,8.86
2024-01-27T09:23:23.006Z,8.90
2024-01-27T09:25:50.025Z,9.05
2024-01-27T09:28:17.610Z,9.15
2024-01-27T09:30:44.843Z,9.23
2024-01-27T09:33:12.696Z,9.43
2024-01-27T09:35:39.718Z,9.52
2024-01-27T09:38:07.489Z,9.83
2024-01-27T09:40:34.456Z,9.75
2024-01-27T09:43:02.153Z,9.72
2024-01-27T09:45:29.390Z,9.83
2024-01-27T09:47:59.163Z,10.08
2024-01-27T09:50:26.267Z,10.09
2024-01-27T09:52:55.018Z,10.13
2024-01-27T09:55:23.609Z,10.20
2024-01-27T09:57:50.927Z,10.22
2024-01-27T10:00:18.456Z,10.28
2024-01-27T10:02:46.991Z,10.47
2024-01-27T10:05:14.219Z,10.75
2024-01-27T10:07:43.578Z,10.74
2024-01-27T10:10:10.898Z,10.75
2024-01-27T10:12:44.247Z,10.73
2024-01-27T10:15:24.441Z,10.86
2024-01-27T10:17:51.714Z,11.08
2024-01-27T10:20:20.804Z,11.09
2024-01-27T10:22:48.128Z,11.19
2024-01-27T10:25:16.265Z,11.19
2024-01-27T10:27:43.484Z,11.34
2024-01-27T10:30:20.146Z,11.39
2024-01-27T10:32:57.457Z,11.48
2024-01-27T10:35:24.420Z,11.48
2024-01-27T10:37:59.149Z,11.42
2024-01-27T10:40:28.276Z,11.33
2024-01-27T10:43:05.438Z,11.19
2024-01-27T10:45:36.482Z,11.10
2024-01-27T10:48:04.539Z,11.07
2024-01-27T10:50:32.009Z,11.08
2024-01-27T10:52:59.718Z,11.08
2024-01-27T10:55:26.694Z,11.00
2024-01-27T10:57:55.805Z,10.93
2024-01-27T11:00:22.993Z,10.89
2024-01-27T11:02:54.719Z,10.87
2024-01-27T11:05:23.053Z,10.95
2024-01-27T11:07:50.573Z,10.97
2024-01-27T11:10:17.879Z,10.95
2024-01-27T11:12:47.504Z,10.87
2024-01-27T11:15:15.481Z,10.85
2024-01-27T11:17:43.083Z,10.98
2024-01-27T11:20:12.826Z,11.02
2024-01-27T11:22:40.830Z,10.99
2024-01-27T11:25:14.191Z,10.93
2024-01-27T11:27:43.502Z,10.89
2024-01-27T11:30:30.468Z,10.83
2024-01-27T11:32:58.574Z,10.91
2024-01-27T11:35:26.076Z,10.86
2024-01-27T11:37:52.985Z,10.93
2024-01-27T11:40:20.344Z,10.89
2024-01-27T11:43:00.658Z,10.87
2024-01-27T11:45:29.508Z,10.68
2024-01-27T11:47:57.195Z,10.64
2024-01-27T11:50:24.484Z,10.60
2024-01-27T11:52:51.371Z,10.57
2024-01-27T11:55:20.424Z,10.62
2024-01-27T11:57:47.231Z,10.62
2024-01-27T12:00:14.233Z,10.58
2024-01-27T12:02:41.544Z,10.56
2024-01-27T12:05:09.588Z,10.54
2024-01-27T12:07:36.688Z,10.60
2024-01-27T12:10:03.603Z,10.67
2024-01-27T12:12:30.389Z,10.65
2024-01-27T12:14:57.330Z,10.69
2024-01-27T12:17:24.497Z,10.76
2024-01-27T12:19:54.297Z,10.78
2024-01-27T12:22:27.533Z,10.87
2024-01-27T12:25:09.425Z,10.85
2024-01-27T12:27:36.534Z,10.91
2024-01-27T12:30:04.627Z,11.06
2024-01-27T12:32:32.498Z,10.93
2024-01-27T12:35:04.140Z,10.89
2024-01-27T12:37:31.016Z,10.88
2024-01-27T12:39:58.352Z,10.94
2024-01-27T12:42:25.367Z,11.07
2024-01-27T12:44:52.664Z,10.89
2024-01-27T12:47:21.337Z,10.75
2024-01-27T12:49:48.507Z,10.75
2024-01-27T12:52:16.063Z,10.70
2024-01-27T12:54:43.108Z,10.72
2024-01-27T12:57:10.417Z,10.81
2024-01-27T12:59:39.575Z,10.61
2024-01-27T13:02:06.414Z,10.51
2024-01-27T13:04:33.323Z,10.33
2024-01-27T13:07:01.369Z,10.46
2024-01-27T13:09:28.447Z,10.40
2024-01-27T13:11:55.562Z,10.23
2024-01-27T13:14:23.235Z,10.41
2024-01-27T13:16:50.194Z,10.43
2024-01-27T13:19:17.181Z,10.37
2024-01-27T13:21:44.130Z,10.37
2024-01-27T13:24:11.035Z,10.69
2024-01-27T13:26:39.276Z,10.55
2024-01-27T13:29:06.364Z,10.56
2024-01-27T13:31:33.736Z,10.51
2024-01-27T13:34:00.997Z,10.45
2024-01-27T13:36:30.632Z,10.36
2024-01-27T13:38:59.513Z,10.32
2024-01-27T13:41:26.563Z,10.37
2024-01-27T13:43:53.814Z,10.36
2024-01-27T13:46:20.827Z,10.46
2024-01-27T13:48:48.575Z,10.42
2024-01-27T13:51:15.882Z,10.44
2024-01-27T13:53:47.224Z,10.33
2024-01-27T13:56:15.659Z,10.28
2024-01-27T13:58:43.138Z,10.34
2024-01-27T14:01:10.170Z,10.41
2024-01-27T14:03:38.958Z,10.32
2024-01-27T14:06:06.223Z,10.32
2024-01-27T14:08:33.185Z,10.52
2024-01-27T14:11:00.145Z,10.64
2024-01-27T14:13:29.532Z,10.62
2024-01-27T14:15:56.403Z,10.44
2024-01-27T14:18:23.770Z,10.41
2024-01-27T14:20:52.158Z,10.40
2024-01-27T14:23:19.387Z,10.44
2024-01-27T14:25:47.936Z,10.48
2024-01-27T14:28:15.696Z,10.29
2024-01-27T14:30:42.911Z,10.30
2024-01-27T14:33:10.430Z,10.28
2024-01-27T14:35:37.521Z,10.32
2024-01-27T14:38:06.108Z,10.37
2024-01-27T14:40:34.063Z,10.17
2024-01-27T14:43:01.613Z,10.19
2024-01-27T14:45:28.510Z,10.22
2024-01-27T14:47:59.077Z,10.31
2024-01-27T14:50:27.188Z,10.44
2024-01-27T14:52:53.992Z,10.29
2024-01-27T14:55:21.601Z,10.17
2024-01-27T14:57:48.569Z,9.95
2024-01-27T15:00:17.064Z,9.89
2024-01-27T15:02:47.323Z,9.88
2024-01-27T15:05:14.218Z,9.75
2024-01-27T15:07:41.066Z,9.77
2024-01-27T15:10:08.524Z,9.92
2024-01-27T15:12:35.615Z,9.84
2024-01-27T15:15:02.899Z,9.93
2024-01-27T15:17:29.939Z,9.89
2024-01-27T15:19:57.549Z,9.81
2024-01-27T15:22:24.511Z,9.66
2024-01-27T15:24:51.584Z,9.62
2024-01-27T15:27:18.439Z,9.48
2024-01-27T15:29:45.376Z,9.49
2024-01-27T15:32:12.169Z,9.56
2024-01-27T15:34:39.095Z,9.74
2024-01-27T15:37:07.411Z,9.71
2024-01-27T15:39:34.722Z,9.48
2024-01-27T15:42:05.370Z,9.60
2024-01-27T15:44:32.567Z,9.57
2024-01-27T15:47:01.154Z,9.60
2024-01-27T15:49:29.259Z,9.65
2024-01-27T15:51:56.221Z,9.48
2024-01-27T15:54:23.504Z,9.33
2024-01-27T15:56:50.426Z,9.21
2024-01-27T15:59:17.332Z,9.07
2024-01-27T16:01:44.609Z,8.84
2024-01-27T16:04:11.631Z,8.80
2024-01-27T16:06:38.948Z,8.65
2024-01-27T16:09:09.016Z,8.67
2024-01-27T16:11:35.860Z,8.57
2024-01-27T16:14:02.688Z,8.53
2024-01-27T16:16:31.181Z,8.30
2024-01-27T16:18:58.196Z,8.31
2024-01-27T16:21:26.378Z,8.33
2024-01-27T16:23:53.272Z,8.29
2024-01-27T16:26:20.487Z,8.26
2024-01-27T16:28:48.654Z,8.14
2024-01-27T16:31:16.047Z,8.19
2024-01-27T16:33:43.112Z,8.20
2024-01-27T16:36:10.159Z,8.31
2024-01-27T16:38:37.293Z,8.22
2024-01-27T16:41:04.086Z,8.13
2024-01-27T16:43:30.902Z,7.90
2024-01-27T16:45:58.377Z,7.82
2024-01-27T16:48:25.594Z,7.79
2024-01-27T16:50:52.492Z,7.61
2024-01-27T16:53:19.521Z,7.45
2024-01-27T16:55:46.361Z,7.41
2024-01-27T16:58:13.491Z,7.36
2024-01-27T17:03:16.510Z,7.28
2024-01-27T17:05:44.262Z,7.14
2024-01-27T17:08:11.121Z,6.93
2024-01-27T17:10:38.161Z,6.56
2024-01-27T17:13:05.403Z,6.36
2024-01-27T17:15:32.173Z,6.18
2024-01-27T17:17:59.146Z,6.35
2024-01-27T17:20:26.417Z,6.30
2024-01-27T17:22:53.872Z,6.22
2024-01-27T17:25:20.810Z,6.13
2024-01-27T17:27:47.643Z,6.19
2024-01-27T17:30:15.057Z,6.04
2024-01-27T17:32:44.426Z,6.01
2024-01-27T17:35:11.742Z,5.98
2024-01-27T17:37:38.547Z,6.07
2024-01-27T17:40:07.729Z,6.14
2024-01-27T17:42:35.658Z,6.23
2024-01-27T17:45:04.588Z,6.27
2024-01-27T17:47:32.856Z,6.12
2024-01-27T17:49:59.705Z,6.09
2024-01-27T17:52:26.591Z,6.13
2024-01-27T17:54:53.507Z,6.28
2024-01-27T17:57:20.416Z,6.15
2024-01-27T17:59:48.106Z,6.38
2024-01-27T18:02:14.977Z,6.39
2024-01-27T18:04:41.837Z,6.27
2024-01-27T18:07:08.905Z,6.30
2024-01-27T18:09:35.786Z,6.22
2024-01-27T18:12:03.000Z,6.17
2024-01-27T18:14:29.942Z,6.18
2024-01-27T18:16:56.672Z,6.11
2024-01-27T18:19:23.836Z,6.14
2024-01-27T18:21:51.532Z,6.26
2024-01-27T18:24:18.946Z,6.42
2024-01-27T18:26:46.144Z,6.28
2024-01-27T18:29:13.018Z,6.37
2024-01-27T18:31:44.065Z,6.24
2024-01-27T18:34:11.643Z,6.38
2024-01-27T18:36:38.945Z,6.49
2024-01-27T18:39:06.088Z,6.31
2024-01-27T18:41:33.081Z,6.11
2024-01-27T18:44:00.558Z,6.11
2024-01-27T18:46:27.478Z,6.13
2024-01-27T18:48:54.613Z,6.11
2024-01-27T18:51:21.836Z,5.98
2024-01-27T18:53:48.696Z,5.85
2024-01-27T18:56:15.685Z,6.03
2024-01-27T18:58:42.675Z,5.86
2024-01-27T19:01:10.020Z,5.80
2024-01-27T19:03:37.501Z,5.69
2024-01-27T19:06:04.511Z,5.69
2024-01-27T19:08:31.359Z,5.86
2024-01-27T19:10:58.246Z,5.85
2024-01-27T19:13:26.570Z,5.80
2024-01-27T19:15:56.126Z,5.96
2024-01-27T19:18:23.403Z,5.91
2024-01-27T19:20:50.742Z,5.99
2024-01-27T19:23:17.571Z,6.00
2024-01-27T19:25:44.592Z,5.94
2024-01-27T19:28:11.378Z,5.82
2024-01-27T19:30:38.210Z,5.68
2024-01-27T19:33:05.496Z,5.90
2024-01-27T19:35:32.411Z,5.96
2024-01-27T19:38:00.277Z,5.86
2024-01-27T19:40:27.156Z,5.70
2024-01-27T19:42:55.103Z,5.73
2024-01-27T19:45:22.934Z,5.77
2024-01-27T19:47:50.075Z,5.73
2024-01-27T19:50:17.307Z,5.80
2024-01-27T19:52:44.215Z,5.72
2024-01-27T19:55:12.561Z,5.67
2024-01-27T19:57:40.443Z,5.56
2024-01-27T20:00:10.001Z,5.57
2024-01-27T20:02:36.888Z,5.83
2024-01-27T20:05:05.729Z,5.94
2024-01-27T20:07:36.132Z,5.84
2024-01-27T20:10:04.657Z,5.83
2024-01-27T20:12:32.581Z,5.74
2024-01-27T20:15:00.544Z,5.67
2024-01-27T20:17:27.533Z,5.58
2024-01-27T20:19:56.343Z,5.65
2024-01-27T20:22:24.768Z,5.60
2024-01-27T20:24:52.977Z,5.63
2024-01-27T20:27:20.344Z,5.74
2024-01-27T20:29:47.172Z,5.41
2024-01-27T20:32:14.003Z,5.39
2024-01-27T20:34:41.401Z,5.37
2024-01-27T20:37:11.272Z,5.46
2024-01-27T20:39:45.630Z,5.65
2024-01-27T20:42:12.723Z,5.43
2024-01-27T20:44:39.655Z,5.53
2024-01-27T20:47:06.660Z,5.43
2024-01-27T20:49:34.389Z,5.36
2024-01-27T20:52:01.554Z,5.26
2024-01-27T20:54:28.662Z,5.30
2024-01-27T20:56:56.040Z,5.45
2024-01-27T20:59:24.265Z,5.54
2024-01-27T21:01:51.332Z,5.54
2024-01-27T21:04:18.370Z,5.67
2024-01-27T21:06:46.228Z,5.55
2024-01-27T21:09:13.637Z,5.42
2024-01-27T21:11:40.784Z,5.40
2024-01-27T21:14:07.844Z,5.29
2024-01-27T21:16:34.755Z,5.32
2024-01-27T21:19:04.452Z,5.22
2024-01-27T21:21:31.712Z,5.36
2024-01-27T21:23:58.634Z,5.28
2024-01-27T21:26:25.616Z,5.29
2024-01-27T21:28:52.678Z,5.19
2024-01-27T21:31:19.687Z,4.99
2024-01-27T21:33:46.577Z,5.22
2024-01-27T21:36:13.564Z,5.08
2024-01-27T21:38:40.532Z,5.12
2024-01-27T21:41:07.896Z,5.14
2024-01-27T21:43:34.909Z,5.34
2024-01-27T21:46:02.486Z,5.22
2024-01-27T21:48:30.790Z,5.00
2024-01-27T21:50:57.631Z,5.13
2024-01-27T21:53:25.187Z,5.01
2024-01-27T21:55:52.583Z,4.95
2024-01-27T21:58:19.586Z,4.97
2024-01-27T22:00:46.644Z,5.07
2024-01-27T22:03:14.362Z,4.91
2024-01-27T22:05:41.457Z,5.02
2024-01-27T22:08:08.586Z,5.05
2024-01-27T22:10:37.072Z,5.01
2024-01-27T22:13:04.251Z,5.13
2024-01-27T22:15:31.425Z,5.10
2024-01-27T22:17:58.550Z,5.08
2024-01-27T22:20:25.642Z,4.83
2024-01-27T22:22:52.523Z,4.86
2024-01-27T22:25:20.458Z,4.68
2024-01-27T22:27:47.272Z,4.71
2024-01-27T22:30:16.302Z,4.87
2024-01-27T22:32:43.620Z,4.77
2024-01-27T22:35:11.794Z,4.74
2024-01-27T22:37:38.997Z,4.70
2024-01-27T22:40:09.978Z,4.77
2024-01-27T22:42:37.424Z,4.67
2024-01-27T22:45:04.557Z,4.66
2024-01-27T22:47:36.223Z,4.78
2024-01-27T22:50:05.315Z,4.78
2024-01-27T22:52:32.725Z,4.61
2024-01-27T22:54:59.636Z,4.60
2024-01-27T22:57:26.411Z,4.62
2024-01-27T22:59:53.296Z,4.70
2024-01-27T23:02:20.527Z,4.49
2024-01-27T23:04:48.108Z,4.61
2024-01-27T23:07:16.451Z,4.61
2024-01-27T23:09:45.043Z,4.68
2024-01-27T23:12:12.876Z,5.09
2024-01-27T23:14:39.808Z,5.14
2024-01-27T23:17:06.858Z,4.95
2024-01-27T23:19:36.087Z,4.80
2024-01-27T23:22:04.378Z,4.73
2024-01-27T23:24:33.393Z,4.56
2024-01-27T23:27:01.211Z,4.72
2024-01-27T23:29:28.516Z,5.03
2024-01-27T23:31:55.498Z,5.05
2024-01-27T23:34:22.809Z,4.92
2024-01-27T23:36:51.212Z,4.59
2024-01-27T23:39:18.413Z,4.82
2024-01-27T23:41:45.824Z,4.89
2024-01-27T23:44:12.677Z,5.03
2024-01-27T23:46:39.609Z,4.89
2024-01-27T23:49:06.599Z,4.87
2024-01-27T23:51:36.274Z,4.71
2024-01-27T23:54:03.328Z,4.66
2024-01-27T23:56:30.566Z,4.56
2024-01-27T23:58:57.608Z,4.57
